createdAt,value
2023-05-13T00:02:14.021Z,2.07
2023-05-13T00:04:41.933Z,1.80
2023-05-13T00:07:11.082Z,1.97
2023-05-13T00:09:38.847Z,2.20
2023-05-13T00:12:07.021Z,2.30
2023-05-13T00:14:34.782Z,2.50
2023-05-13T00:17:04.737Z,2.53
2023-05-13T00:19:32.619Z,2.50
2023-05-13T00:22:00.389Z,2.47
2023-05-13T00:24:29.520Z,2.43
2023-05-13T00:26:57.346Z,2.20
2023-05-13T00:29:25.129Z,2.30
2023-05-13T00:31:52.912Z,2.40
2023-05-13T00:34:20.857Z,2.27
2023-05-13T00:36:48.629Z,2.83
2023-05-13T00:39:16.673Z,2.80
2023-05-13T00:41:45.948Z,2.60
2023-05-13T00:44:14.555Z,5.13
2023-05-13T00:46:43.260Z,5.20
2023-05-13T00:49:11.269Z,8.40
2023-05-13T00:51:39.465Z,7.07
2023-05-13T00:54:07.242Z,7.50
2023-05-13T00:56:34.981Z,7.93
2023-05-13T00:59:04.197Z,9.27
2023-05-13T01:01:39.370Z,8.83
2023-05-13T01:04:18.423Z,7.37
2023-05-13T01:06:53.142Z,5.60
2023-05-13T01:09:29.449Z,4.30
2023-05-13T01:12:04.813Z,4.17
2023-05-13T01:14:35.350Z,3.10
2023-05-13T01:17:08.889Z,3.30
2023-05-13T01:19:43.335Z,2.63
2023-05-13T01:22:12.474Z,2.67
2023-05-13T01:24:40.306Z,2.10
2023-05-13T01:27:08.569Z,2.50
2023-05-13T01:29:37.559Z,2.20
2023-05-13T01:32:06.701Z,2.57
2023-05-13T01:34:35.438Z,2.57
2023-05-13T01:37:03.348Z,2.37
2023-05-13T01:39:33.457Z,2.60
2023-05-13T01:42:01.255Z,2.40
2023-05-13T01:44:29.191Z,2.30
2023-05-13T01:46:57.372Z,2.37
2023-05-13T01:49:25.800Z,3.13
2023-05-13T01:51:53.568Z,2.73
2023-05-13T01:54:23.246Z,2.63
2023-05-13T01:56:52.794Z,2.47
2023-05-13T01:59:20.539Z,2.93
2023-05-13T02:01:48.390Z,2.50
2023-05-13T02:04:16.593Z,2.33
2023-05-13T02:06:44.401Z,3.10
2023-05-13T02:09:12.164Z,2.97
2023-05-13T02:11:39.950Z,2.93
2023-05-13T02:14:09.055Z,2.70
2023-05-13T02:16:36.853Z,2.87
2023-05-13T02:19:04.852Z,2.80
2023-05-13T02:21:32.926Z,2.40
2023-05-13T02:24:00.877Z,2.27
2023-05-13T02:26:28.698Z,2.77
2023-05-13T02:28:56.519Z,2.30
2023-05-13T02:31:25.716Z,2.80
2023-05-13T02:33:53.971Z,2.80
2023-05-13T02:36:21.748Z,2.70
2023-05-13T02:38:49.509Z,3.07
2023-05-13T02:41:17.291Z,2.53
2023-05-13T02:43:45.023Z,2.80
2023-05-13T02:46:12.869Z,3.00
2023-05-13T02:48:42.057Z,3.23
2023-05-13T02:51:09.950Z,3.00
2023-05-13T02:53:37.705Z,3.10
2023-05-13T02:56:05.930Z,3.20
2023-05-13T02:58:33.970Z,3.03
2023-05-13T03:01:01.785Z,3.17
2023-05-13T03:03:29.957Z,2.90
2023-05-13T03:05:59.394Z,2.80
2023-05-13T03:08:27.168Z,2.53
2023-05-13T03:10:55.402Z,3.30
2023-05-13T03:13:23.205Z,2.70
2023-05-13T03:15:50.975Z,2.63
2023-05-13T03:18:18.752Z,3.07
2023-05-13T03:20:46.515Z,2.90
2023-05-13T03:23:15.636Z,2.83
2023-05-13T03:25:43.402Z,2.77
2023-05-13T03:28:11.139Z,2.97
2023-05-13T03:30:38.923Z,3.17
2023-05-13T03:33:06.788Z,3.23
2023-05-13T03:35:34.564Z,2.77
2023-05-13T03:38:02.343Z,3.03
2023-05-13T03:40:31.539Z,3.17
2023-05-13T03:42:59.342Z,3.07
2023-05-13T03:45:27.174Z,2.80
2023-05-13T03:47:55.059Z,2.50
2023-05-13T03:50:23.157Z,2.43
2023-05-13T03:52:51.110Z,2.60
2023-05-13T03:55:18.875Z,2.50
2023-05-13T03:57:49.432Z,2.63
2023-05-13T04:00:17.618Z,2.77
2023-05-13T04:02:45.500Z,3.10
2023-05-13T04:05:14.209Z,2.67
2023-05-13T04:07:42.466Z,2.90
2023-05-13T04:10:15.234Z,2.63
2023-05-13T04:12:43.448Z,2.73
2023-05-13T04:15:12.906Z,3.50
2023-05-13T04:17:40.688Z,3.13
2023-05-13T04:20:10.773Z,3.00
2023-05-13T04:22:38.562Z,2.73
2023-05-13T04:25:06.966Z,2.80
2023-05-13T04:27:34.693Z,2.47
2023-05-13T04:30:02.464Z,3.17
2023-05-13T04:32:31.766Z,3.07
2023-05-13T04:34:59.620Z,2.50
2023-05-13T04:37:27.487Z,2.73
2023-05-13T04:39:55.328Z,2.83
2023-05-13T04:42:23.077Z,2.60
2023-05-13T04:44:50.899Z,2.67
2023-05-13T04:47:19.513Z,3.00
2023-05-13T04:49:48.602Z,2.43
2023-05-13T04:52:16.893Z,2.50
2023-05-13T04:54:44.653Z,2.43
2023-05-13T04:57:12.442Z,3.20
2023-05-13T04:59:40.238Z,3.07
2023-05-13T05:02:08.038Z,2.80
2023-05-13T05:04:35.854Z,3.00
2023-05-13T05:07:05.154Z,2.80
2023-05-13T05:09:32.940Z,3.00
2023-05-13T05:12:00.695Z,2.77
2023-05-13T05:14:28.473Z,2.90
2023-05-13T05:16:56.271Z,2.90
2023-05-13T05:19:24.592Z,3.20
2023-05-13T05:21:52.413Z,2.90
2023-05-13T05:24:21.560Z,2.87
2023-05-13T05:26:49.335Z,3.00
2023-05-13T05:29:17.157Z,3.03
2023-05-13T05:31:45.193Z,2.90
2023-05-13T05:34:13.315Z,3.17
2023-05-13T05:36:41.109Z,2.50
2023-05-13T05:39:08.942Z,2.80
2023-05-13T05:41:38.091Z,2.83
2023-05-13T05:44:06.020Z,2.60
2023-05-13T05:46:34.109Z,2.77
2023-05-13T05:49:03.376Z,3.10
2023-05-13T05:51:31.163Z,3.00
2023-05-13T05:53:58.928Z,2.90
2023-05-13T05:56:26.743Z,2.63
2023-05-13T05:58:55.810Z,2.97
2023-05-13T06:01:23.565Z,2.83
2023-05-13T06:03:53.115Z,2.87
2023-05-13T06:06:22.572Z,2.30
2023-05-13T06:08:50.332Z,2.90
2023-05-13T06:11:18.116Z,2.63
2023-05-13T06:13:45.935Z,2.77
2023-05-13T06:16:15.083Z,2.67
2023-05-13T06:18:43.093Z,2.80
2023-05-13T06:21:10.947Z,2.40
2023-05-13T06:23:38.723Z,2.20
2023-05-13T06:26:06.550Z,2.80
2023-05-13T06:28:34.314Z,2.67
2023-05-13T06:31:02.095Z,2.57
2023-05-13T06:33:31.266Z,2.40
2023-05-13T06:35:59.072Z,2.40
2023-05-13T06:38:26.982Z,2.50
2023-05-13T06:40:54.806Z,2.67
2023-05-13T06:43:22.577Z,2.43
2023-05-13T06:45:50.342Z,2.57
2023-05-13T06:48:18.209Z,2.50
2023-05-13T06:50:47.419Z,2.20
2023-05-13T06:53:15.196Z,2.43
2023-05-13T06:55:42.972Z,2.30
2023-05-13T06:58:11.268Z,2.50
2023-05-13T07:00:40.660Z,2.40
2023-05-13T07:03:08.881Z,2.43
2023-05-13T07:05:37.019Z,2.27
2023-05-13T07:08:08.446Z,2.33
2023-05-13T07:10:36.873Z,2.40
2023-05-13T07:13:04.886Z,2.60
2023-05-13T07:15:32.677Z,2.30
2023-05-13T07:18:00.489Z,2.30
2023-05-13T07:20:28.331Z,2.50
2023-05-13T07:22:56.071Z,2.43
2023-05-13T07:25:25.372Z,2.13
2023-05-13T07:27:53.117Z,2.00
2023-05-13T07:30:21.312Z,2.23
2023-05-13T07:32:49.505Z,1.80
2023-05-13T07:35:18.054Z,2.37
2023-05-13T07:37:46.027Z,2.07
2023-05-13T07:40:14.259Z,2.20
2023-05-13T07:42:43.425Z,2.20
2023-05-13T07:45:11.918Z,2.10
2023-05-13T07:47:40.257Z,2.40
2023-05-13T07:50:09.673Z,2.13
2023-05-13T07:52:38.026Z,2.30
2023-05-13T07:55:06.467Z,2.30
2023-05-13T07:57:34.941Z,2.07
2023-05-13T08:00:04.621Z,2.10
2023-05-13T08:02:34.723Z,2.00
2023-05-13T08:05:02.688Z,2.13
2023-05-13T08:07:30.509Z,2.80
2023-05-13T08:09:58.252Z,2.10
2023-05-13T08:12:26.011Z,2.03
2023-05-13T08:14:53.831Z,1.87
2023-05-13T08:17:23.005Z,2.00
2023-05-13T08:19:50.876Z,1.70
2023-05-13T08:22:18.640Z,1.87
2023-05-13T08:24:46.384Z,2.00
2023-05-13T08:27:14.230Z,2.00
2023-05-13T08:29:41.990Z,1.80
2023-05-13T08:32:11.059Z,1.90
2023-05-13T08:34:41.020Z,1.57
2023-05-13T08:37:08.777Z,2.00
2023-05-13T08:39:36.525Z,1.90
2023-05-13T08:42:05.282Z,1.57
2023-05-13T08:44:36.182Z,1.30
2023-05-13T08:47:13.958Z,1.60
2023-05-13T08:49:43.585Z,1.40
2023-05-13T08:52:11.676Z,1.63
2023-05-13T08:54:40.563Z,1.70
2023-05-13T08:57:08.322Z,1.70
2023-05-13T08:59:36.106Z,1.93
2023-05-13T09:02:05.877Z,1.50
2023-05-13T09:04:37.457Z,1.30
2023-05-13T09:07:07.166Z,1.87
2023-05-13T09:09:35.025Z,1.47
2023-05-13T09:12:03.417Z,1.77
2023-05-13T09:14:32.410Z,1.80
2023-05-13T09:17:01.846Z,1.37
2023-05-13T09:19:29.849Z,1.60
2023-05-13T09:21:58.020Z,1.50
2023-05-13T09:24:27.156Z,1.50
2023-05-13T09:26:54.962Z,1.70
2023-05-13T09:29:24.760Z,1.60
2023-05-13T09:31:54.687Z,1.57
2023-05-13T09:34:27.332Z,1.50
2023-05-13T09:37:03.332Z,1.20
2023-05-13T09:39:34.400Z,1.50
2023-05-13T09:42:04.910Z,1.50
2023-05-13T09:44:33.691Z,1.43
2023-05-13T09:47:02.901Z,1.37
2023-05-13T09:49:33.028Z,1.30
2023-05-13T09:52:00.828Z,1.13
2023-05-13T09:54:37.047Z,1.30
2023-05-13T09:57:05.573Z,1.40
2023-05-13T09:59:33.663Z,1.10
2023-05-13T10:02:04.659Z,1.37
2023-05-13T10:04:32.599Z,1.50
2023-05-13T10:07:03.117Z,1.30
2023-05-13T10:09:35.517Z,1.50
2023-05-13T10:12:08.538Z,1.27
2023-05-13T10:14:38.296Z,1.50
2023-05-13T10:17:07.255Z,1.20
2023-05-13T10:19:35.526Z,1.27
2023-05-13T10:22:03.809Z,1.20
2023-05-13T10:24:32.114Z,1.30
2023-05-13T10:27:01.683Z,1.57
2023-05-13T10:29:31.199Z,1.50
2023-05-13T10:32:00.654Z,1.33
2023-05-13T10:34:31.278Z,1.40
2023-05-13T10:37:14.337Z,1.47
2023-05-13T10:40:20.976Z,1.37
2023-05-13T10:42:57.352Z,1.47
2023-05-13T10:45:28.581Z,1.33
2023-05-13T10:47:57.246Z,1.13
2023-05-13T10:50:26.713Z,1.30
2023-05-13T10:52:58.118Z,1.27
2023-05-13T10:55:27.999Z,1.33
2023-05-13T10:58:10.540Z,1.30
2023-05-13T11:00:40.425Z,1.37
2023-05-13T11:03:29.569Z,1.53
2023-05-13T11:06:04.583Z,1.67
2023-05-13T11:08:39.835Z,1.40
2023-05-13T11:11:30.302Z,1.30
2023-05-13T11:14:09.457Z,1.60
2023-05-13T11:16:38.907Z,1.67
2023-05-13T11:19:21.392Z,1.57
2023-05-13T11:21:51.752Z,1.77
2023-05-13T11:24:20.274Z,1.80
2023-05-13T11:26:50.340Z,1.43
2023-05-13T11:29:30.457Z,1.33
2023-05-13T11:32:00.979Z,1.70
2023-05-13T11:34:30.140Z,1.87
2023-05-13T11:37:09.530Z,1.73
2023-05-13T11:39:39.884Z,1.90
2023-05-13T11:42:08.972Z,1.90
2023-05-13T11:44:37.567Z,2.07
2023-05-13T11:47:07.986Z,2.13
2023-05-13T11:49:39.320Z,2.30
2023-05-13T11:52:10.119Z,2.10
2023-05-13T11:54:46.307Z,1.90
2023-05-13T11:57:20.565Z,1.80
2023-05-13T11:59:56.394Z,2.13
2023-05-13T12:02:27.356Z,1.70
2023-05-13T12:04:55.513Z,1.90
2023-05-13T12:07:24.565Z,2.40
2023-05-13T12:09:52.863Z,2.17
2023-05-13T12:12:21.249Z,2.20
2023-05-13T12:14:51.009Z,2.20
2023-05-13T12:17:19.424Z,1.83
2023-05-13T12:20:17.328Z,2.27
2023-05-13T12:22:53.535Z,1.80
2023-05-13T12:25:41.229Z,2.20
2023-05-13T12:28:10.733Z,1.73
2023-05-13T12:30:39.531Z,2.20
2023-05-13T12:33:13.470Z,2.00
2023-05-13T12:35:42.969Z,2.30
2023-05-13T12:38:16.178Z,2.13
2023-05-13T12:40:44.249Z,2.30
2023-05-13T12:43:13.142Z,1.90
2023-05-13T12:45:44.793Z,2.17
2023-05-13T12:48:13.441Z,1.80
2023-05-13T12:50:42.549Z,1.97
2023-05-13T12:53:10.366Z,1.80
2023-05-13T12:55:39.819Z,1.97
2023-05-13T12:58:11.711Z,1.97
2023-05-13T13:00:39.612Z,2.10
2023-05-13T13:03:07.999Z,1.83
2023-05-13T13:05:36.438Z,2.20
2023-05-13T13:08:06.093Z,2.07
2023-05-13T13:10:34.041Z,2.40
2023-05-13T13:13:01.807Z,1.83
2023-05-13T13:15:29.623Z,1.97
2023-05-13T13:17:57.433Z,1.90
2023-05-13T13:20:25.370Z,1.83
2023-05-13T13:22:54.173Z,1.90
2023-05-13T13:25:23.483Z,1.80
2023-05-13T13:27:51.531Z,1.90
2023-05-13T13:30:19.317Z,1.80
2023-05-13T13:32:47.169Z,1.67
2023-05-13T13:35:14.948Z,1.70
2023-05-13T13:37:42.729Z,1.63
2023-05-13T13:40:11.802Z,1.73
2023-05-13T13:42:44.505Z,1.70
2023-05-13T13:45:13.546Z,1.60
2023-05-13T13:47:41.433Z,1.80
2023-05-13T13:50:09.807Z,1.90
2023-05-13T13:52:37.544Z,1.83
2023-05-13T13:55:06.229Z,1.80
2023-05-13T13:57:34.034Z,1.73
2023-05-13T14:00:03.149Z,1.60
2023-05-13T14:02:31.008Z,1.77
2023-05-13T14:04:58.898Z,1.50
2023-05-13T14:07:26.976Z,1.90
2023-05-13T14:09:54.755Z,1.90
2023-05-13T14:12:22.504Z,1.60
2023-05-13T14:14:50.287Z,1.50
2023-05-13T14:17:20.082Z,1.43
2023-05-13T14:19:51.523Z,1.77
2023-05-13T14:22:19.294Z,1.63
2023-05-13T14:24:47.089Z,1.97
2023-05-13T14:27:15.055Z,1.60
2023-05-13T14:29:42.888Z,1.60
2023-05-13T14:32:10.653Z,1.60
2023-05-13T14:34:39.762Z,2.03
2023-05-13T14:37:08.654Z,1.63
2023-05-13T14:39:36.863Z,1.27
2023-05-13T14:42:05.553Z,1.63
2023-05-13T14:44:33.373Z,1.30
2023-05-13T14:47:01.344Z,1.20
2023-05-13T14:49:29.232Z,1.60
2023-05-13T14:51:58.331Z,1.80
2023-05-13T14:54:26.106Z,1.50
2023-05-13T14:56:53.997Z,1.50
2023-05-13T14:59:21.798Z,1.10
2023-05-13T15:01:49.584Z,1.30
2023-05-13T15:04:17.352Z,1.13
2023-05-13T15:06:45.090Z,1.27
2023-05-13T15:09:14.183Z,1.20
2023-05-13T15:11:42.280Z,1.60
2023-05-13T15:14:10.901Z,1.30
2023-05-13T15:16:38.673Z,1.10
2023-05-13T15:19:08.402Z,1.23
2023-05-13T15:21:36.273Z,1.10
2023-05-13T15:24:04.215Z,1.20
2023-05-13T15:26:33.339Z,1.30
2023-05-13T15:29:01.099Z,1.10
2023-05-13T15:31:28.957Z,0.93
2023-05-13T15:33:56.789Z,1.20
2023-05-13T15:36:24.559Z,1.20
2023-05-13T15:38:52.301Z,1.60
2023-05-13T15:41:20.122Z,1.73
2023-05-13T15:43:49.278Z,1.50
2023-05-13T15:46:17.144Z,1.00
2023-05-13T15:48:44.992Z,1.23
2023-05-13T15:51:12.774Z,1.40
2023-05-13T15:53:40.746Z,1.07
2023-05-13T15:56:08.707Z,1.10
2023-05-13T15:58:36.498Z,1.23
2023-05-13T16:01:06.387Z,1.50
2023-05-13T16:03:35.042Z,1.40
2023-05-13T16:06:03.867Z,1.30
2023-05-13T16:08:31.671Z,1.50
2023-05-13T16:10:59.409Z,1.27
2023-05-13T16:13:27.354Z,1.37
2023-05-13T16:15:55.590Z,1.20
2023-05-13T16:18:24.819Z,1.97
2023-05-13T16:20:52.888Z,1.20
2023-05-13T16:23:20.739Z,1.50
2023-05-13T16:25:48.563Z,1.40
2023-05-13T16:28:16.872Z,1.50
2023-05-13T16:30:44.606Z,1.47
2023-05-13T16:33:14.634Z,1.73
2023-05-13T16:35:43.760Z,1.53
2023-05-13T16:38:11.755Z,1.20
2023-05-13T16:40:39.517Z,1.40
2023-05-13T16:43:07.348Z,1.67
2023-05-13T16:45:35.126Z,1.67
2023-05-13T16:48:02.947Z,1.77
2023-05-13T16:50:31.335Z,1.70
2023-05-13T16:53:08.921Z,1.77
2023-05-13T16:58:43.328Z,1.67
2023-05-13T17:01:09.227Z,1.80
2023-05-13T17:03:37.021Z,1.63
2023-05-13T17:06:07.081Z,1.80
2023-05-13T17:08:36.177Z,1.83
2023-05-13T17:11:04.327Z,2.10
2023-05-13T17:13:32.076Z,1.93
2023-05-13T17:15:59.827Z,1.90
2023-05-13T17:18:27.579Z,2.50
2023-05-13T17:20:55.830Z,2.10
2023-05-13T17:23:23.577Z,1.80
2023-05-13T17:25:52.829Z,2.20
2023-05-13T17:28:20.562Z,2.30
2023-05-13T17:30:48.405Z,2.03
2023-05-13T17:33:16.520Z,2.30
2023-05-13T17:35:44.353Z,2.60
2023-05-13T17:38:12.073Z,2.60
2023-05-13T17:40:39.831Z,2.30
2023-05-13T17:43:10.941Z,2.53
2023-05-13T17:45:38.934Z,2.77
2023-05-13T17:48:07.501Z,2.60
2023-05-13T17:50:35.480Z,2.20
2023-05-13T17:53:03.268Z,2.70
2023-05-13T17:55:31.254Z,2.80
2023-05-13T17:57:59.737Z,2.80
2023-05-13T18:00:28.923Z,2.43
2023-05-13T18:02:56.738Z,3.03
2023-05-13T18:05:24.548Z,2.90
2023-05-13T18:07:52.297Z,2.97
2023-05-13T18:10:20.217Z,3.40
2023-05-13T18:12:48.086Z,2.90
2023-05-13T18:15:15.979Z,3.20
2023-05-13T18:17:45.139Z,3.40
2023-05-13T18:20:13.806Z,3.17
2023-05-13T18:22:41.587Z,3.50
2023-05-13T18:25:10.835Z,3.43
2023-05-13T18:27:38.639Z,3.70
2023-05-13T18:30:07.397Z,3.20
2023-05-13T18:32:35.141Z,4.03
2023-05-13T18:35:04.498Z,3.77
2023-05-13T18:37:32.233Z,3.97
2023-05-13T18:40:00.036Z,3.67
2023-05-13T18:42:28.048Z,4.07
2023-05-13T18:44:55.845Z,3.43
2023-05-13T18:47:23.668Z,4.10
2023-05-13T18:49:51.536Z,4.30
2023-05-13T18:52:21.183Z,4.20
2023-05-13T18:54:48.917Z,3.93
2023-05-13T18:57:16.917Z,4.57
2023-05-13T18:59:44.735Z,4.47
2023-05-13T19:02:12.671Z,3.87
2023-05-13T19:04:40.777Z,4.33
2023-05-13T19:07:08.553Z,3.67
2023-05-13T19:09:37.669Z,4.50
2023-05-13T19:12:05.645Z,4.17
2023-05-13T19:14:33.504Z,4.30
2023-05-13T19:17:01.918Z,4.37
2023-05-13T19:19:29.712Z,4.10
2023-05-13T19:21:57.471Z,4.00
2023-05-13T19:24:25.280Z,4.60
2023-05-13T19:26:54.441Z,4.27
2023-05-13T19:29:22.212Z,4.30
2023-05-13T19:31:49.989Z,4.53
2023-05-13T19:34:17.762Z,4.40
2023-05-13T19:36:46.339Z,4.43
2023-05-13T19:39:14.151Z,4.03
2023-05-13T19:41:41.879Z,4.50
2023-05-13T19:44:10.960Z,4.50
2023-05-13T19:46:38.849Z,4.50
2023-05-13T19:49:06.669Z,4.17
2023-05-13T19:51:34.438Z,4.30
2023-05-13T19:54:02.380Z,4.50
2023-05-13T19:56:31.189Z,4.70
2023-05-13T19:58:58.943Z,4.43
2023-05-13T20:01:28.121Z,4.70
2023-05-13T20:03:56.390Z,4.67
2023-05-13T20:06:24.303Z,4.00
2023-05-13T20:08:52.220Z,4.20
2023-05-13T20:11:19.980Z,4.50
2023-05-13T20:13:47.774Z,4.60
2023-05-13T20:16:15.534Z,4.60
2023-05-13T20:18:44.806Z,4.47
2023-05-13T20:21:12.640Z,4.60
2023-05-13T20:23:41.425Z,4.43
2023-05-13T20:26:09.341Z,4.90
2023-05-13T20:28:37.825Z,4.60
2023-05-13T20:31:05.729Z,4.50
2023-05-13T20:33:33.499Z,4.57
2023-05-13T20:36:02.789Z,4.03
2023-05-13T20:38:30.613Z,4.97
2023-05-13T20:40:58.377Z,4.13
2023-05-13T20:43:26.146Z,4.30
2023-05-13T20:45:53.965Z,4.57
2023-05-13T20:48:21.840Z,4.77
2023-05-13T20:50:49.615Z,4.60
2023-05-13T20:53:18.704Z,4.53
2023-05-13T20:55:46.451Z,4.00
2023-05-13T20:58:14.202Z,3.93
2023-05-13T21:00:41.948Z,4.37
2023-05-13T21:03:09.847Z,4.73
2023-05-13T21:05:37.646Z,4.77
2023-05-13T21:08:05.565Z,4.80
2023-05-13T21:10:34.717Z,5.00
2023-05-13T21:13:02.711Z,4.53
2023-05-13T21:15:30.570Z,3.97
2023-05-13T21:17:58.578Z,4.30
2023-05-13T21:20:26.454Z,3.97
2023-05-13T21:22:54.202Z,4.63
2023-05-13T21:25:22.090Z,4.20
2023-05-13T21:27:51.218Z,4.40
2023-05-13T21:30:18.984Z,5.00
2023-05-13T21:32:46.752Z,4.30
2023-05-13T21:35:14.618Z,4.73
2023-05-13T21:37:42.341Z,4.60
2023-05-13T21:40:10.920Z,4.90
2023-05-13T21:42:38.668Z,5.23
2023-05-13T21:45:08.918Z,4.40
2023-05-13T21:47:36.704Z,4.90
2023-05-13T21:50:07.176Z,4.67
2023-05-13T21:52:35.214Z,4.50
2023-05-13T21:55:03.271Z,4.63
2023-05-13T21:57:31.189Z,4.70
2023-05-13T21:59:58.942Z,4.90
2023-05-13T22:02:28.132Z,5.10
2023-05-13T22:04:55.922Z,4.40
2023-05-13T22:07:23.775Z,4.60
2023-05-13T22:09:51.531Z,3.97
2023-05-13T22:12:19.305Z,4.27
2023-05-13T22:14:47.049Z,4.30
2023-05-13T22:17:14.933Z,4.77
2023-05-13T22:19:44.126Z,4.40
2023-05-13T22:22:11.935Z,4.53
2023-05-13T22:24:39.783Z,4.80
2023-05-13T22:27:07.593Z,4.20
2023-05-13T22:29:35.345Z,4.10
2023-05-13T22:32:03.226Z,4.23
2023-05-13T22:34:31.031Z,3.93
2023-05-13T22:37:00.139Z,4.70
2023-05-13T22:39:27.872Z,4.80
2023-05-13T22:41:55.694Z,4.73
2023-05-13T22:44:23.789Z,4.40
2023-05-13T22:46:52.374Z,4.60
2023-05-13T22:49:20.312Z,4.93
2023-05-13T22:51:48.120Z,4.90
2023-05-13T22:54:17.230Z,4.87
2023-05-13T22:56:45.023Z,4.67
2023-05-13T22:59:12.766Z,4.67
2023-05-13T23:01:40.603Z,4.50
2023-05-13T23:04:08.493Z,4.83
2023-05-13T23:06:36.376Z,4.23
2023-05-13T23:09:04.494Z,4.27
2023-05-13T23:11:35.579Z,4.10
2023-05-13T23:14:03.365Z,3.87
2023-05-13T23:16:31.256Z,4.50
2023-05-13T23:18:59.117Z,4.50
2023-05-13T23:21:26.971Z,3.97
2023-05-13T23:23:54.728Z,3.83
2023-05-13T23:26:24.647Z,4.50
2023-05-13T23:28:53.746Z,4.17
2023-05-13T23:31:21.512Z,4.10
2023-05-13T23:33:49.273Z,4.60
2023-05-13T23:36:17.005Z,5.07
2023-05-13T23:38:44.751Z,4.93
2023-05-13T23:41:12.495Z,5.50
2023-05-13T23:43:40.284Z,5.40
2023-05-13T23:46:09.447Z,5.37
2023-05-13T23:48:37.290Z,4.83
2023-05-13T23:51:05.677Z,5.00
2023-05-13T23:53:33.530Z,4.90
2023-05-13T23:56:01.271Z,5.10
2023-05-13T23:58:29.037Z,4.60
